Barr, Illinois
Current Conditions -  °F | °C
As of 10:35 AM on Saturday 25 Oct 2014 (Local Time) from K3LF Reporting Station
Haze Haze  
Wind Chill: 61°   Ceiling: 300
Heat Index: 61°   Visibility: 2.5mi
Dew Point: 59°   Wind: 3mph
Humidity: 93%   Direction: 300°WNW
Pressure: 30.05"   Gusts: NA
Location:  39.3923°N, 89.9237°W
Report Text: K3LF 251535Z AUTO 30003KT 2 1/2SM BR OVC003 16/15 A3005 RMK AO2 T01610150
Loading
Personal Weather Stations






























Interactive Weather Map
Tropical Storm Tracking
New forecast layout! Learn more

10-Day Weather Forecast

Advertisements
Track Severe Weather on mobile